Time;durP1;ratioP1;P1;durP2;ratioP2;P2;SDS_P1;SDS_P2;PMS_P1;PMS_P2;Temp;Humidity;BMP_temperature;BMP_pressure;BME280_temperature;BME280_humidity;BME280_pressure;Samples;Min_cycle;Max_cycle;Signal;HPM_P1;HPM_P2
2022/11/21 00:00:51;;;;;;;6.43;5.78;;;3.70;99.90;;;;;;4974670;28;20085;-66
2022/11/21 00:03:18;;;;;;;6.85;5.50;;;3.80;99.90;;;;;;4981735;28;20085;-64
2022/11/21 00:05:45;;;;;;;5.70;5.10;;;3.80;99.90;;;;;;4987616;28;20486;-65
2022/11/21 00:08:14;;;;;;;14.43;5.90;;;3.80;99.90;;;;;;4979123;28;20494;-64
2022/11/21 00:10:40;;;;;;;6.43;5.75;;;3.90;99.90;;;;;;4981623;28;20026;-64
2022/11/21 00:13:07;;;;;;;6.78;5.82;;;3.90;99.90;;;;;;4981734;28;20038;-66
2022/11/21 00:15:34;;;;;;;5.90;4.65;;;4.00;99.90;;;;;;4977905;28;20027;-66
2022/11/21 00:18:02;;;;;;;12.70;5.32;;;4.10;99.90;;;;;;4980552;28;20034;-64
2022/11/21 00:20:28;;;;;;;5.03;4.53;;;4.10;99.90;;;;;;4983251;28;20052;-64
2022/11/21 00:22:54;;;;;;;10.07;6.25;;;4.20;99.90;;;;;;4977502;28;20806;-64
2022/11/21 00:25:19;;;;;;;5.25;4.38;;;4.30;99.90;;;;;;4977911;28;20038;-65
2022/11/21 00:27:45;;;;;;;5.35;3.95;;;4.30;99.90;;;;;;4977429;28;20038;-65
2022/11/21 00:30:11;;;;;;;5.97;3.40;;;4.30;99.90;;;;;;4980030;28;20026;-66
2022/11/21 00:32:37;;;;;;;6.30;4.07;;;4.40;99.90;;;;;;4981384;28;20022;-64
2022/11/21 00:35:04;;;;;;;7.38;4.25;;;4.50;99.90;;;;;;4982796;28;20026;-67
2022/11/21 00:37:33;;;;;;;5.45;4.05;;;4.60;99.90;;;;;;4979704;28;20073;-64
2022/11/21 00:39:59;;;;;;;4.68;2.90;;;4.60;99.90;;;;;;4982247;28;20026;-66
2022/11/21 00:42:25;;;;;;;6.63;3.33;;;4.60;99.90;;;;;;4980982;28;20077;-65
2022/11/21 00:44:51;;;;;;;3.53;3.10;;;4.60;99.90;;;;;;4979645;28;20034;-65
2022/11/21 00:47:16;;;;;;;5.97;3.05;;;4.70;99.90;;;;;;4980936;28;20031;-66
2022/11/21 00:49:42;;;;;;;4.68;3.15;;;4.70;99.90;;;;;;4976857;28;20700;-64
2022/11/21 00:52:08;;;;;;;6.35;2.67;;;4.70;99.90;;;;;;4982433;28;20034;-64
2022/11/21 00:54:34;;;;;;;4.38;3.35;;;4.70;99.90;;;;;;4985884;28;20030;-69
2022/11/21 00:57:00;;;;;;;5.30;3.00;;;4.70;99.90;;;;;;4993928;28;20031;-64
2022/11/21 00:59:26;;;;;;;3.38;2.92;;;4.80;99.90;;;;;;4990879;28;20588;-66
2022/11/21 01:01:51;;;;;;;3.40;2.60;;;4.70;99.90;;;;;;4981311;28;20035;-65
2022/11/21 01:04:17;;;;;;;7.25;2.78;;;4.80;99.90;;;;;;4978777;28;20030;-69
2022/11/21 01:06:43;;;;;;;3.30;2.70;;;4.90;99.90;;;;;;4979572;28;20041;-64
2022/11/21 01:09:08;;;;;;;6.45;2.72;;;4.90;99.90;;;;;;4977638;28;20125;-65
2022/11/21 01:11:34;;;;;;;2.92;2.00;;;5.00;99.90;;;;;;4975885;28;20058;-64
2022/11/21 01:14:00;;;;;;;5.30;2.65;;;5.00;99.90;;;;;;4978282;28;20093;-64
2022/11/21 01:16:27;;;;;;;4.95;1.90;;;5.00;99.90;;;;;;4979311;28;20061;-66
2022/11/21 01:18:53;;;;;;;3.65;2.92;;;5.10;99.90;;;;;;4978863;28;20026;-65
2022/11/21 01:21:30;;;;;;;3.58;2.67;;;5.10;99.90;;;;;;4978475;28;20031;-65
2022/11/21 01:23:59;;;;;;;4.47;2.33;;;5.00;99.90;;;;;;4977792;28;20046;-66
2022/11/21 01:26:27;;;;;;;5.93;2.33;;;5.00;99.90;;;;;;4979543;28;20027;-65
2022/11/21 01:28:53;;;;;;;6.15;1.98;;;5.10;99.90;;;;;;4976396;28;20080;-65
2022/11/21 01:31:19;;;;;;;3.25;2.17;;;5.10;99.90;;;;;;4978788;28;20106;-65
2022/11/21 01:33:46;;;;;;;3.92;1.80;;;5.10;99.90;;;;;;4979610;28;20474;-65
2022/11/21 01:36:13;;;;;;;6.20;2.05;;;5.10;99.90;;;;;;4976502;28;20034;-64
2022/11/21 01:38:44;;;;;;;2.65;1.77;;;5.20;99.90;;;;;;4978449;28;20027;-66
2022/11/21 01:41:10;;;;;;;;;;;5.20;99.90;;;;;;4978053;28;20076;-67
2022/11/21 01:43:36;;;;;;;6.15;2.50;;;5.20;99.90;;;;;;4974895;28;19910;-64
2022/11/21 01:46:08;;;;;;;8.00;3.63;;;5.20;99.90;;;;;;4977022;28;20548;-67
2022/11/21 01:48:33;;;;;;;5.32;1.83;;;5.30;99.90;;;;;;4971631;28;20390;-65
2022/11/21 01:51:06;;;;;;;3.20;1.98;;;5.30;99.90;;;;;;4976307;28;20018;-65
2022/11/21 01:53:34;;;;;;;5.80;2.45;;;5.30;99.90;;;;;;4983572;28;20106;-65
2022/11/21 01:56:00;;;;;;;4.32;1.98;;;5.30;99.90;;;;;;4980906;28;20034;-64
2022/11/21 01:58:28;;;;;;;4.47;2.67;;;5.30;99.90;;;;;;4979284;28;20092;-66
2022/11/21 02:00:53;;;;;;;3.20;1.63;;;5.30;99.90;;;;;;4977939;28;20026;-67
2022/11/21 02:03:24;;;;;;;6.13;1.65;;;5.30;99.90;;;;;;4980246;28;20031;-67
2022/11/21 02:05:53;;;;;;;6.80;1.70;;;5.30;99.90;;;;;;4978041;28;20081;-68
2022/11/21 02:08:20;;;;;;;7.60;1.50;;;5.30;99.90;;;;;;4976625;28;20039;-68
2022/11/21 02:11:09;;;;;;;6.68;2.28;;;5.40;99.90;;;;;;4978143;28;20035;-66
2022/11/21 02:13:35;;;;;;;4.60;2.03;;;5.40;99.90;;;;;;4981405;28;20438;-67
2022/11/21 02:16:01;;;;;;;4.90;1.70;;;5.40;99.90;;;;;;4980764;28;20022;-66
2022/11/21 02:18:27;;;;;;;6.30;2.30;;;5.40;99.90;;;;;;4978338;28;20034;-65
2022/11/21 02:21:03;;;;;;;4.68;1.42;;;5.50;99.90;;;;;;4979662;28;20441;-66
2022/11/21 02:23:40;;;;;;;3.13;1.40;;;5.50;99.90;;;;;;4981037;28;20498;-66
2022/11/21 02:26:06;;;;;;;5.72;2.58;;;5.50;99.90;;;;;;4973652;28;20023;-65
2022/11/21 02:28:33;;;;;;;7.18;2.30;;;5.50;99.90;;;;;;4982720;28;20045;-66
2022/11/21 02:30:58;;;;;;;5.05;1.90;;;5.50;99.90;;;;;;4977614;28;20030;-64
2022/11/21 02:33:24;;;;;;;8.25;2.10;;;5.50;99.90;;;;;;4975971;28;20462;-64
2022/11/21 02:36:00;;;;;;;4.00;1.50;;;5.50;99.90;;;;;;4982990;28;20050;-64
2022/11/21 02:38:30;;;;;;;5.13;1.45;;;5.50;99.90;;;;;;4977643;28;20829;-64
2022/11/21 02:41:12;;;;;;;2.30;1.58;;;5.60;99.90;;;;;;4982624;28;20048;-65
2022/11/21 02:43:54;;;;;;;1.77;1.10;;;5.60;99.90;;;;;;4976618;28;20031;-64
2022/11/21 02:46:20;;;;;;;4.82;1.27;;;5.60;99.90;;;;;;4976320;28;20032;-65
2022/11/21 02:48:45;;;;;;;2.95;1.27;;;5.60;99.90;;;;;;4981686;28;20035;-67
2022/11/21 02:51:11;;;;;;;3.53;1.50;;;5.70;99.90;;;;;;4981307;28;20074;-64
2022/11/21 02:53:37;;;;;;;3.67;1.58;;;5.70;99.90;;;;;;4977874;28;20039;-65
2022/11/21 02:56:02;;;;;;;6.72;1.70;;;5.60;99.90;;;;;;4981245;28;20026;-66
2022/11/21 02:58:28;;;;;;;4.00;1.42;;;5.70;99.90;;;;;;4979400;28;20046;-64
2022/11/21 03:00:54;;;;;;;12.27;1.75;;;5.70;99.90;;;;;;4981931;28;20145;-67
2022/11/21 03:03:20;;;;;;;9.10;2.22;;;5.70;99.90;;;;;;4979267;28;20082;-64
2022/11/21 03:05:45;;;;;;;8.07;2.88;;;5.70;99.90;;;;;;4982917;28;20035;-64
2022/11/21 03:08:11;;;;;;;3.03;1.45;;;5.70;99.90;;;;;;4978700;28;20034;-63
2022/11/21 03:10:37;;;;;;;7.18;1.30;;;5.70;99.90;;;;;;4982672;28;20034;-64
2022/11/21 03:13:03;;;;;;;3.10;1.30;;;5.70;99.90;;;;;;4976121;28;20026;-67
2022/11/21 03:15:32;;;;;;;3.35;1.40;;;5.60;99.90;;;;;;4980194;28;20031;-64
2022/11/21 03:17:59;;;;;;;5.20;1.70;;;5.70;99.90;;;;;;4984745;28;20034;-64
2022/11/21 03:20:25;;;;;;;3.88;1.25;;;5.60;99.90;;;;;;4980887;28;20031;-64
2022/11/21 03:22:52;;;;;;;4.13;1.30;;;5.60;99.90;;;;;;4984448;28;20041;-64
2022/11/21 03:25:18;;;;;;;4.20;1.65;;;5.70;99.90;;;;;;4980719;28;20026;-64
2022/11/21 03:27:44;;;;;;;2.92;1.40;;;5.60;99.90;;;;;;4981519;28;20026;-64
2022/11/21 03:30:10;;;;;;;4.03;1.50;;;5.60;99.90;;;;;;4985646;28;20212;-65
2022/11/21 03:32:36;;;;;;;2.88;1.50;;;5.50;99.90;;;;;;4981920;28;20482;-63
2022/11/21 03:35:02;;;;;;;2.35;1.13;;;5.60;99.90;;;;;;4981024;28;20057;-65
2022/11/21 03:37:27;;;;;;;4.78;1.60;;;5.60;99.90;;;;;;4978692;28;20042;-64
2022/11/21 03:39:53;;;;;;;3.28;1.55;;;5.50;99.90;;;;;;4982273;28;20030;-64
2022/11/21 03:42:18;;;;;;;1.77;1.02;;;5.50;99.90;;;;;;4983450;28;20024;-65
2022/11/21 03:44:44;;;;;;;1.58;1.10;;;5.50;99.90;;;;;;4976996;28;20034;-63
2022/11/21 03:47:09;;;;;;;3.25;1.40;;;5.50;99.90;;;;;;4981412;28;20050;-65
2022/11/21 03:49:35;;;;;;;2.78;1.42;;;5.60;99.90;;;;;;4979641;28;20126;-65
2022/11/21 03:52:01;;;;;;;6.07;1.33;;;5.60;99.90;;;;;;4980576;28;20057;-67
2022/11/21 03:54:26;;;;;;;3.20;1.30;;;5.60;99.90;;;;;;4976957;28;20030;-64
2022/11/21 03:56:52;;;;;;;3.20;1.25;;;5.50;99.90;;;;;;4977410;28;20533;-64
2022/11/21 03:59:17;;;;;;;7.95;1.20;;;5.50;99.90;;;;;;4981208;28;20038;-64
2022/11/21 04:01:43;;;;;;;8.00;1.52;;;5.50;99.90;;;;;;4979700;28;20035;-66
2022/11/21 04:04:09;;;;;;;7.40;1.55;;;5.50;99.90;;;;;;4978068;28;20111;-64
2022/11/21 04:06:34;;;;;;;4.20;1.33;;;5.50;99.90;;;;;;4981687;28;20027;-66
2022/11/21 04:09:00;;;;;;;6.97;1.20;;;5.50;99.90;;;;;;4983252;28;20109;-64
2022/11/21 04:11:26;;;;;;;1.92;1.10;;;5.50;99.90;;;;;;4979996;28;20430;-65
2022/11/21 04:13:52;;;;;;;3.17;1.38;;;5.40;99.90;;;;;;4979348;28;20399;-67
2022/11/21 04:16:18;;;;;;;4.13;1.15;;;5.40;99.90;;;;;;4980039;28;20019;-67
2022/11/21 04:18:43;;;;;;;8.40;1.73;;;5.40;99.90;;;;;;4980976;28;20057;-68
2022/11/21 04:21:09;;;;;;;4.03;1.70;;;5.40;99.90;;;;;;4979383;28;20042;-65
2022/11/21 04:23:35;;;;;;;3.65;1.40;;;5.30;99.90;;;;;;4985975;28;20050;-64
2022/11/21 04:26:01;;;;;;;3.67;1.73;;;5.30;99.90;;;;;;4980264;28;20115;-64
2022/11/21 04:28:27;;;;;;;5.43;1.73;;;5.30;99.90;;;;;;4978086;28;20041;-65
2022/11/21 04:30:52;;;;;;;4.40;1.95;;;5.30;99.90;;;;;;4976848;28;20031;-65
2022/11/21 04:33:19;;;;;;;3.25;1.70;;;5.30;99.90;;;;;;4978338;28;20398;-64
2022/11/21 04:35:45;;;;;;;3.08;1.70;;;5.20;99.90;;;;;;4981904;28;20180;-64
2022/11/21 04:38:12;;;;;;;3.13;1.13;;;5.20;99.90;;;;;;4983929;28;20022;-65
2022/11/21 04:40:38;;;;;;;2.22;1.15;;;5.20;99.90;;;;;;4982141;28;20398;-65
2022/11/21 04:43:04;;;;;;;2.53;1.00;;;5.20;99.90;;;;;;4981451;28;20101;-65
2022/11/21 04:45:30;;;;;;;2.63;1.33;;;5.20;99.90;;;;;;4987855;28;20366;-64
2022/11/21 04:47:55;;;;;;;2.88;1.20;;;5.20;99.90;;;;;;4990370;28;20603;-64
2022/11/21 04:50:22;;;;;;;8.38;1.63;;;5.20;99.90;;;;;;4976372;28;20035;-64
2022/11/21 04:52:56;;;;;;;5.25;1.52;;;5.10;99.90;;;;;;4979195;28;20028;-64
2022/11/21 04:55:26;;;;;;;5.75;1.58;;;5.10;99.90;;;;;;4977370;28;20027;-64
2022/11/21 04:57:52;;;;;;;5.38;1.27;;;5.10;99.90;;;;;;4981179;28;20038;-64
2022/11/21 05:00:17;;;;;;;4.82;1.33;;;5.10;99.90;;;;;;4977502;28;20533;-64
2022/11/21 05:02:44;;;;;;;2.72;1.17;;;5.10;99.90;;;;;;4976043;28;20490;-65
2022/11/21 05:05:10;;;;;;;2.55;1.20;;;5.00;99.90;;;;;;4979573;28;20041;-65
2022/11/21 05:07:37;;;;;;;5.10;1.17;;;5.00;99.90;;;;;;4972322;28;20030;-64
2022/11/21 05:10:03;;;;;;;3.97;1.20;;;5.00;99.90;;;;;;4980883;28;20022;-65
2022/11/21 05:15:13;;;;;;;3.25;1.48;;;5.00;99.90;;;;;;4978432;28;20029;-65
2022/11/21 05:17:39;;;;;;;3.28;1.58;;;5.00;99.90;;;;;;4978973;28;20035;-67
2022/11/21 05:20:05;;;;;;;2.80;1.60;;;5.00;99.90;;;;;;4979202;28;20038;-68
2022/11/21 05:22:31;;;;;;;6.20;2.47;;;5.00;99.90;;;;;;4981200;28;20725;-67
2022/11/21 05:24:56;;;;;;;8.82;3.45;;;5.00;99.90;;;;;;4982470;28;20477;-65
2022/11/21 05:27:22;;;;;;;7.68;2.53;;;5.00;99.90;;;;;;4980600;28;20485;-64
2022/11/21 05:29:48;;;;;;;11.25;3.05;;;5.00;99.90;;;;;;4978950;28;20039;-65
2022/11/21 05:32:13;;;;;;;8.90;5.65;;;5.00;99.90;;;;;;4979684;28;20038;-65
2022/11/21 05:34:39;;;;;;;4.78;3.40;;;5.00;99.90;;;;;;4984039;28;20031;-67
2022/11/21 05:37:05;;;;;;;5.68;2.67;;;5.00;99.90;;;;;;4984198;28;20465;-68
2022/11/21 05:39:30;;;;;;;3.53;1.30;;;4.90;99.90;;;;;;4974485;28;20042;-65
2022/11/21 05:41:56;;;;;;;2.63;1.30;;;4.90;99.90;;;;;;4979084;28;20485;-65
2022/11/21 05:44:21;;;;;;;7.78;1.25;;;4.90;99.90;;;;;;4976795;28;20093;-66
2022/11/21 05:46:47;;;;;;;4.10;1.70;;;4.90;99.90;;;;;;4981039;28;20034;-68
2022/11/21 05:49:13;;;;;;;2.90;1.10;;;4.90;99.90;;;;;;4980461;28;20037;-65
2022/11/21 05:51:39;;;;;;;1.88;1.30;;;4.90;99.90;;;;;;4973939;28;20097;-68
2022/11/21 05:54:04;;;;;;;1.92;1.15;;;4.90;99.90;;;;;;4976779;28;20058;-65
2022/11/21 05:56:30;;;;;;;2.22;1.20;;;4.90;99.90;;;;;;4978929;28;20057;-66
2022/11/21 05:58:57;;;;;;;8.73;2.60;;;4.90;99.90;;;;;;4975924;28;20038;-65
2022/11/21 06:04:08;;;;;;;5.07;1.67;;;4.90;99.90;;;;;;4980424;28;20045;-65
2022/11/21 06:06:34;;;;;;;4.05;1.35;;;5.00;99.90;;;;;;4980620;28;20027;-66
2022/11/21 06:09:00;;;;;;;6.18;1.92;;;5.00;99.90;;;;;;4977234;28;20065;-65
2022/11/21 06:11:26;;;;;;;2.85;1.42;;;5.00;99.90;;;;;;4978819;28;20023;-65
2022/11/21 06:13:52;;;;;;;4.25;1.50;;;5.00;99.90;;;;;;4979594;28;20149;-69
2022/11/21 06:16:19;;;;;;;3.58;1.90;;;4.90;99.90;;;;;;4979048;28;20026;-67
2022/11/21 06:18:47;;;;;;;5.70;3.03;;;4.90;99.90;;;;;;4973310;28;20117;-66
2022/11/21 06:21:15;;;;;;;5.78;2.20;;;4.90;99.90;;;;;;4976323;28;20030;-65
2022/11/21 06:23:41;;;;;;;3.80;2.08;;;4.90;99.90;;;;;;4983476;28;20038;-66
2022/11/21 06:26:12;;;;;;;6.38;1.98;;;4.80;99.90;;;;;;4978199;28;20078;-67
2022/11/21 06:28:39;;;;;;;5.82;1.92;;;4.80;99.90;;;;;;4980455;28;20043;-66
2022/11/21 06:31:09;;;;;;;7.68;2.15;;;4.80;99.90;;;;;;4983089;28;20844;-69
2022/11/21 06:33:35;;;;;;;5.57;1.80;;;4.80;99.90;;;;;;4981285;28;20549;-68
2022/11/21 06:36:05;;;;;;;3.67;1.30;;;4.70;99.90;;;;;;4983828;28;20482;-67
2022/11/21 06:38:31;;;;;;;3.70;1.38;;;4.70;99.90;;;;;;4982590;28;20034;-65
2022/11/21 06:40:57;;;;;;;7.70;1.98;;;4.60;99.90;;;;;;4979110;28;20035;-66
2022/11/21 06:43:23;;;;;;;6.13;2.67;;;4.60;99.90;;;;;;4978165;28;20038;-66
2022/11/21 06:45:49;;;;;;;3.05;1.65;;;4.60;99.90;;;;;;4981036;28;20025;-69
2022/11/21 06:48:14;;;;;;;7.85;4.40;;;4.50;99.90;;;;;;4984332;28;20035;-65
2022/11/21 06:50:40;;;;;;;4.13;3.42;;;4.50;99.90;;;;;;4979660;28;20023;-66
2022/11/21 06:53:06;;;;;;;6.38;4.18;;;4.50;99.90;;;;;;4980881;28;20042;-66
2022/11/21 06:55:31;;;;;;;5.13;2.10;;;4.50;99.90;;;;;;4981230;28;20486;-66
2022/11/21 06:57:59;;;;;;;4.50;2.15;;;4.50;99.90;;;;;;4977383;28;20071;-65
2022/11/21 07:00:27;;;;;;;2.90;1.77;;;4.50;99.90;;;;;;4978208;28;20093;-65
2022/11/21 07:02:54;;;;;;;4.38;1.98;;;4.40;99.90;;;;;;4985041;28;20066;-67
2022/11/21 07:05:19;;;;;;;5.63;1.90;;;4.40;99.90;;;;;;4982903;28;20038;-67
2022/11/21 07:07:45;;;;;;;3.75;2.60;;;4.40;99.90;;;;;;4980162;28;20035;-68
2022/11/21 07:10:11;;;;;;;8.00;4.55;;;4.40;99.90;;;;;;4978408;28;20018;-70
2022/11/21 07:15:21;;;;;;;7.50;4.95;;;4.40;99.90;;;;;;4982118;28;20082;-66
2022/11/21 07:17:46;;;;;;;7.63;4.57;;;4.30;99.90;;;;;;4976914;28;20034;-66
2022/11/21 07:20:12;;;;;;;4.18;2.63;;;4.30;99.90;;;;;;4983020;28;20084;-66
2022/11/21 07:22:38;;;;;;;4.28;3.03;;;4.30;99.90;;;;;;4980932;28;20415;-67
2022/11/21 07:25:04;;;;;;;3.35;3.05;;;4.30;99.90;;;;;;4983516;28;20441;-69
2022/11/21 07:27:30;;;;;;;3.83;3.25;;;4.30;99.90;;;;;;4982827;28;20716;-69
2022/11/21 07:29:57;;;;;;;4.32;2.90;;;4.30;99.90;;;;;;4983203;28;20066;-66
2022/11/21 07:32:27;;;;;;;5.13;2.83;;;4.30;99.90;;;;;;4980522;28;20117;-66
2022/11/21 07:34:52;;;;;;;3.42;2.80;;;4.40;99.90;;;;;;4976394;28;21028;-66
2022/11/21 07:37:18;;;;;;;16.73;11.02;;;4.40;99.90;;;;;;4981347;28;20015;-66
2022/11/21 07:39:44;;;;;;;4.80;4.28;;;4.40;99.90;;;;;;4980852;28;20101;-67
2022/11/21 07:42:10;;;;;;;4.60;4.20;;;4.40;99.90;;;;;;4982451;28;20027;-68
2022/11/21 07:44:35;;;;;;;5.18;3.33;;;4.40;99.90;;;;;;4994637;28;20065;-67
2022/11/21 07:47:01;;;;;;;7.32;2.50;;;4.50;99.90;;;;;;4997934;28;20037;-66
2022/11/21 07:49:27;;;;;;;4.10;2.40;;;4.50;99.90;;;;;;5002335;28;20041;-66
2022/11/21 07:51:52;;;;;;;10.27;9.45;;;4.50;99.90;;;;;;5002878;28;20037;-68
2022/11/21 07:54:18;;;;;;;8.45;4.38;;;4.50;99.90;;;;;;5002131;28;20025;-70
2022/11/21 07:56:44;;;;;;;139.60;77.90;;;4.50;99.90;;;;;;4998737;28;20034;-67
2022/11/21 07:59:09;;;;;;;8.18;4.28;;;4.50;99.90;;;;;;5001230;28;20030;-65
2022/11/21 08:01:35;;;;;;;4.32;2.83;;;4.50;99.90;;;;;;5000069;28;20398;-70
2022/11/21 08:04:01;;;;;;;24.50;20.60;;;4.60;99.90;;;;;;5002304;28;20058;-66
2022/11/21 08:06:26;;;;;;;8.70;4.53;;;4.60;99.90;;;;;;5001365;28;20034;-67
2022/11/21 08:08:53;;;;;;;3.83;2.80;;;4.60;99.90;;;;;;5000999;28;20035;-67
2022/11/21 08:11:18;;;;;;;5.55;3.20;;;4.70;99.90;;;;;;4996522;28;20269;-67
2022/11/21 08:13:44;;;;;;;6.25;5.63;;;4.70;99.90;;;;;;5000156;28;20626;-67
2022/11/21 08:16:10;;;;;;;5.43;3.97;;;4.70;99.90;;;;;;5002015;28;20381;-68
2022/11/21 08:18:35;;;;;;;5.20;4.22;;;4.70;99.90;;;;;;5004305;28;20107;-69
2022/11/21 08:21:02;;;;;;;3.85;3.15;;;4.70;99.90;;;;;;5004202;28;20931;-67
2022/11/21 08:23:28;;;;;;;7.53;5.10;;;4.70;99.90;;;;;;4998096;28;20053;-67
2022/11/21 08:25:54;;;;;;;6.72;4.38;;;4.70;99.90;;;;;;5000549;28;20033;-67
2022/11/21 08:28:20;;;;;;;6.38;5.43;;;4.80;99.90;;;;;;5000133;28;20561;-68
2022/11/21 08:30:46;;;;;;;6.05;5.40;;;4.70;99.90;;;;;;5002154;28;20036;-68
2022/11/21 08:33:11;;;;;;;4.57;3.60;;;4.70;99.90;;;;;;4997870;28;20066;-70
2022/11/21 08:35:37;;;;;;;3.65;3.13;;;4.70;99.90;;;;;;5002000;28;20042;-69
2022/11/21 08:38:03;;;;;;;9.20;8.23;;;4.70;99.90;;;;;;4998126;28;20034;-71
2022/11/21 08:40:30;;;;;;;4.57;3.40;;;4.70;99.90;;;;;;4999065;28;20532;-68
2022/11/21 08:43:08;;;;;;;4.65;3.72;;;4.60;99.90;;;;;;4999426;28;20029;-68
2022/11/21 08:45:35;;;;;;;6.97;6.28;;;4.60;99.90;;;;;;4980988;28;20050;-71
2022/11/21 08:48:01;;;;;;;15.05;11.55;;;4.60;99.90;;;;;;4978826;28;20122;-67
2022/11/21 08:50:27;;;;;;;4.18;3.20;;;4.60;99.90;;;;;;4978912;28;20030;-67
2022/11/21 08:52:59;;;;;;;3.67;3.20;;;4.70;99.90;;;;;;5001556;28;20068;-67
2022/11/21 08:55:24;;;;;;;4.82;3.10;;;4.70;99.90;;;;;;4994971;28;20049;-68
2022/11/21 08:57:50;;;;;;;4.53;3.58;;;4.70;99.90;;;;;;4998559;28;20038;-69
2022/11/21 09:00:15;;;;;;;9.60;6.05;;;4.80;99.90;;;;;;4997443;28;20085;-70
2022/11/21 09:02:41;;;;;;;118.47;51.95;;;4.90;99.90;;;;;;4997876;28;20031;-68
2022/11/21 09:05:08;;;;;;;6.90;4.97;;;4.90;99.90;;;;;;4997026;28;20084;-68
2022/11/21 09:07:33;;;;;;;8.80;5.97;;;4.90;99.90;;;;;;4997003;28;20031;-68
2022/11/21 09:09:59;;;;;;;18.15;11.95;;;4.90;99.90;;;;;;4998195;28;20021;-71
2022/11/21 09:12:25;;;;;;;6.45;4.90;;;4.90;99.90;;;;;;4994945;28;20397;-68
2022/11/21 09:20:19;;;;;;;4.30;3.35;;;4.90;99.90;;;;;;4998238;28;20145;-67
2022/11/21 09:22:45;;;;;;;47.10;31.80;;;5.00;99.90;;;;;;4999282;28;20113;-67
2022/11/21 09:25:11;;;;;;;6.32;3.85;;;5.00;99.90;;;;;;4998322;28;20478;-69
2022/11/21 09:27:36;;;;;;;3.15;2.60;;;5.00;99.90;;;;;;4999800;28;20037;-71
2022/11/21 09:30:02;;;;;;;4.82;4.43;;;5.00;99.90;;;;;;5000725;28;20022;-68
2022/11/21 09:32:28;;;;;;;4.63;4.22;;;5.00;99.90;;;;;;4999005;28;20034;-67
2022/11/21 09:34:53;;;;;;;3.78;3.47;;;5.00;99.90;;;;;;4999692;28;20030;-68
2022/11/21 09:37:19;;;;;;;2.70;2.47;;;5.10;99.90;;;;;;5000906;28;20034;-69
2022/11/21 09:39:44;;;;;;;3.30;2.53;;;5.10;99.90;;;;;;4999621;28;20054;-72
2022/11/21 09:42:19;;;;;;;2.97;2.10;;;5.10;99.90;;;;;;4997752;28;20037;-71
2022/11/21 09:44:56;;;;;;;3.65;3.03;;;5.10;99.90;;;;;;4994330;28;20092;-68
2022/11/21 09:47:25;;;;;;;2.78;2.42;;;5.10;99.90;;;;;;4998038;28;20072;-68
2022/11/21 09:50:00;;;;;;;5.00;4.13;;;5.10;99.90;;;;;;4998884;28;20093;-68
2022/11/21 09:52:40;;;;;;;6.90;6.35;;;5.10;99.90;;;;;;4998452;28;20034;-67
2022/11/21 09:55:35;;;;;;;4.82;3.15;;;5.20;99.90;;;;;;4999406;28;20024;-70
2022/11/21 09:58:10;;;;;;;3.70;3.33;;;5.10;99.90;;;;;;5000687;28;20050;-69
2022/11/21 10:00:35;;;;;;;3.83;2.75;;;5.10;99.90;;;;;;5002376;28;20041;-68
2022/11/21 10:03:01;;;;;;;4.18;3.78;;;5.20;99.90;;;;;;4998652;28;20030;-72
2022/11/21 10:05:41;;;;;;;4.32;3.67;;;5.30;99.90;;;;;;4996660;28;20034;-67
2022/11/21 10:08:44;;;;;;;2.67;2.47;;;5.30;99.90;;;;;;4995953;28;20054;-72
2022/11/21 10:11:17;;;;;;;3.67;3.33;;;5.40;99.90;;;;;;4997524;28;20030;-68
2022/11/21 10:13:52;;;;;;;3.72;3.30;;;5.50;99.90;;;;;;4999025;28;20117;-67
2022/11/21 10:16:43;;;;;;;1.77;1.58;;;5.50;99.90;;;;;;4995129;28;20037;-69
2022/11/21 10:19:45;;;;;;;2.15;1.77;;;5.40;99.90;;;;;;4995351;28;20132;-68
2022/11/21 10:22:16;;;;;;;4.10;2.97;;;5.30;99.90;;;;;;5000135;28;20041;-67
2022/11/21 10:24:56;;;;;;;56.95;25.25;;;5.10;99.90;;;;;;5015512;28;20100;-69
2022/11/21 10:27:36;;;;;;;5.78;5.18;;;5.00;99.90;;;;;;4997215;28;20192;-69
2022/11/21 10:30:05;;;;;;;5.45;4.90;;;5.00;99.90;;;;;;4996100;28;20072;-68
2022/11/21 10:32:37;;;;;;;3.90;2.92;;;5.00;99.90;;;;;;4997176;28;20034;-68
2022/11/21 10:35:39;;;;;;;3.17;2.63;;;4.90;99.90;;;;;;5004242;28;20168;-68
2022/11/21 10:38:23;;;;;;;2.55;2.22;;;4.90;99.90;;;;;;4979351;28;20041;-66
2022/11/21 10:41:05;;;;;;;4.18;2.17;;;4.90;99.90;;;;;;4995669;28;20052;-66
2022/11/21 10:46:37;;;;;;;2.20;2.00;;;4.90;99.90;;;;;;4995711;28;20087;-66
2022/11/21 10:49:03;;;;;;;4.13;2.20;;;4.90;99.90;;;;;;4999183;28;20532;-66
2022/11/21 10:51:51;;;;;;;1.50;1.33;;;4.90;99.90;;;;;;4998996;28;20048;-66
2022/11/21 10:54:31;;;;;;;3.72;3.17;;;4.80;99.90;;;;;;5000976;28;20037;-68
2022/11/21 10:57:11;;;;;;;4.50;3.72;;;4.70;99.90;;;;;;4996905;28;20779;-67
2022/11/21 10:59:37;;;;;;;3.28;1.75;;;4.70;99.90;;;;;;4999277;28;20456;-68
2022/11/21 11:02:23;;;;;;;1.50;1.27;;;4.70;99.90;;;;;;4996165;28;20087;-71
2022/11/21 11:05:01;;;;;;;1.27;1.17;;;4.60;99.90;;;;;;4997333;28;20037;-70
2022/11/21 11:07:27;;;;;;;2.08;1.00;;;4.60;99.90;;;;;;4997227;28;20081;-68
2022/11/21 11:10:14;;;;;;;3.10;1.15;;;4.60;99.90;;;;;;5004663;28;20031;-66
2022/11/21 11:15:26;;;;;;;1.90;1.00;;;4.70;99.90;;;;;;4997441;28;20044;-66
2022/11/21 11:18:01;;;;;;;1.42;1.13;;;4.70;99.90;;;;;;5001000;28;20117;-66
2022/11/21 11:20:41;;;;;;;1.20;1.10;;;4.80;99.90;;;;;;5002330;28;20045;-66
2022/11/21 11:23:33;;;;;;;1.30;1.20;;;4.80;99.90;;;;;;5002489;28;20430;-70
2022/11/21 11:25:59;;;;;;;2.40;1.33;;;4.90;99.90;;;;;;5004449;28;20026;-69
2022/11/21 11:28:32;;;;;;;2.00;1.45;;;4.80;99.90;;;;;;5004222;28;20777;-68
2022/11/21 11:30:59;;;;;;;3.42;1.65;;;4.70;99.90;;;;;;5003673;28;20092;-66
2022/11/21 11:33:33;;;;;;;2.08;1.85;;;4.70;99.90;;;;;;5001556;28;20034;-66
2022/11/21 11:36:35;;;;;;;4.18;2.22;;;4.60;99.90;;;;;;5003139;28;20041;-69
2022/11/21 11:39:15;;;;;;;3.83;1.98;;;4.50;99.90;;;;;;4998862;28;20029;-70
2022/11/21 11:47:56;;;;;;;2.78;1.65;;;4.30;99.90;;;;;;5002403;28;20037;-69
2022/11/21 11:50:45;;;;;;;1.70;1.60;;;4.40;99.90;;;;;;5001275;28;20029;-67
2022/11/21 11:53:19;;;;;;;2.70;2.05;;;4.40;99.90;;;;;;5004314;28;20026;-66
2022/11/21 11:56:10;;;;;;;2.20;1.92;;;4.50;99.90;;;;;;5002132;28;21695;-67
2022/11/21 11:59:02;;;;;;;2.30;1.92;;;4.70;99.90;;;;;;4999633;28;20093;-71
2022/11/21 12:02:06;;;;;;;2.15;1.75;;;4.80;99.90;;;;;;4999551;28;20033;-68
2022/11/21 12:04:44;;;;;;;3.55;2.03;;;4.90;99.90;;;;;;4996908;28;20765;-70
2022/11/21 12:07:30;;;;;;;3.15;2.17;;;5.00;99.90;;;;;;4996366;28;20045;-69
2022/11/21 12:10:10;;;;;;;2.78;2.47;;;5.20;99.90;;;;;;4969527;28;20694;-70
2022/11/21 12:12:40;;;;;;;2.58;2.35;;;5.30;99.90;;;;;;4981570;28;20497;-68
2022/11/21 12:15:51;;;;;;;2.35;2.15;;;5.30;99.90;;;;;;4982571;28;20451;-68
2022/11/21 12:18:20;;;;;;;2.35;2.10;;;5.30;99.90;;;;;;4979468;28;20528;-67
2022/11/21 12:21:03;;;;;;;2.38;2.17;;;5.30;99.90;;;;;;4981669;28;20034;-66
2022/11/21 12:23:37;;;;;;;2.53;2.03;;;5.30;99.90;;;;;;4977830;28;20030;-66
2022/11/21 12:26:18;;;;;;;2.67;2.30;;;5.30;99.90;;;;;;4977515;28;20034;-67
2022/11/21 12:29:02;;;;;;;3.42;2.30;;;5.30;99.90;;;;;;4980757;28;20393;-68
2022/11/21 12:31:53;;;;;;;3.03;2.72;;;5.30;99.90;;;;;;4983610;28;20035;-66
2022/11/21 12:34:31;;;;;;;;;;;5.70;99.90;;;;;;4979642;28;20028;-66
2022/11/21 12:37:15;;;;;;;3.00;2.70;;;5.90;99.90;;;;;;4981207;28;19920;-71
2022/11/21 12:40:08;;;;;;;2.20;2.00;;;6.10;99.90;;;;;;4977670;28;20026;-70
2022/11/21 12:43:05;;;;;;;5.15;2.42;;;6.20;99.90;;;;;;4981257;28;20062;-67
2022/11/21 12:45:33;;;;;;;5.10;2.67;;;6.10;99.90;;;;;;4979963;28;20039;-70
2022/11/21 12:54:49;;;;;;;2.95;2.35;;;5.80;99.90;;;;;;4980627;28;20080;-67
2022/11/21 12:57:15;;;;;;;3.15;2.20;;;5.70;99.90;;;;;;4977745;28;20101;-66
2022/11/21 13:00:10;;;;;;;1.98;1.63;;;5.70;99.90;;;;;;4980647;28;20486;-66
2022/11/21 13:02:54;;;;;;;3.78;3.45;;;5.50;99.90;;;;;;4976412;28;20045;-70
2022/11/21 13:05:27;;;;;;;3.30;2.10;;;5.50;99.90;;;;;;4981307;28;20039;-66
2022/11/21 13:08:00;;;;;;;3.00;2.40;;;5.40;99.90;;;;;;4980904;28;20121;-70
2022/11/21 13:10:27;;;;;;;3.55;3.22;;;5.40;99.90;;;;;;4976133;28;20081;-67
2022/11/21 13:13:06;;;;;;;5.35;3.10;;;5.40;99.90;;;;;;4976980;28;20352;-66
2022/11/21 13:15:45;;;;;;;3.25;2.80;;;5.30;99.90;;;;;;4979775;28;20133;-66
2022/11/21 13:18:32;;;;;;;3.20;2.88;;;5.20;99.90;;;;;;4980504;28;20035;-66
2022/11/21 13:20:58;;;;;;;4.25;2.90;;;5.10;99.90;;;;;;4976871;28;20045;-65
2022/11/21 13:23:36;;;;;;;3.25;2.78;;;5.10;99.90;;;;;;4980151;28;20030;-66
2022/11/21 13:26:25;;;;;;;4.57;2.80;;;5.10;99.90;;;;;;4976510;28;20030;-67
2022/11/21 13:29:11;;;;;;;5.63;2.83;;;5.10;99.90;;;;;;4978676;28;20069;-69
2022/11/21 13:31:37;;;;;;;3.40;2.88;;;5.10;99.90;;;;;;4980027;28;20094;-68
2022/11/21 13:34:04;;;;;;;3.90;3.17;;;5.10;99.90;;;;;;4977460;28;20092;-67
2022/11/21 13:36:32;;;;;;;3.17;2.88;;;5.00;99.90;;;;;;4981297;28;20054;-72
2022/11/21 13:38:58;;;;;;;4.25;2.88;;;5.00;99.90;;;;;;4979764;28;20031;-70
2022/11/21 13:44:32;;;;;;;3.50;3.20;;;5.00;99.90;;;;;;4983209;28;20405;-70
2022/11/21 13:47:02;;;;;;;5.35;3.03;;;5.10;99.90;;;;;;4980255;28;20081;-74